createdAt,value
2019-03-13T00:00:44.723Z,100109.39
2019-03-13T00:01:54.336Z,100104.58
2019-03-13T00:03:00.201Z,100101.54
2019-03-13T00:04:06.112Z,100100.66
2019-03-13T00:05:12.327Z,100094.06
2019-03-13T00:06:18.381Z,100087.98
2019-03-13T00:07:24.523Z,100088.88
2019-03-13T00:08:34.956Z,100084.91
2019-03-13T00:09:43.443Z,100088.83
2019-03-13T00:10:49.256Z,100076.62
2019-03-13T00:11:55.442Z,100072.69
2019-03-13T00:13:01.720Z,100073.12
2019-03-13T00:14:08.885Z,100074.89
2019-03-13T00:15:14.835Z,100068.34
2019-03-13T00:16:21.616Z,100055.67
2019-03-13T00:17:28.403Z,100054.79
2019-03-13T00:18:34.192Z,100052.59
2019-03-13T00:19:39.837Z,100046.52
2019-03-13T00:20:45.577Z,100045.59
2019-03-13T00:21:52.668Z,100039.93
2019-03-13T00:22:58.421Z,100035.61
2019-03-13T00:24:04.090Z,100033.00
2019-03-13T00:25:10.081Z,100026.07
2019-03-13T00:26:15.931Z,100022.57
2019-03-13T00:27:21.657Z,100023.45
2019-03-13T00:28:28.454Z,100029.16
2019-03-13T00:29:34.512Z,100024.84
2019-03-13T00:30:40.592Z,100019.61
2019-03-13T00:31:46.700Z,100027.50
2019-03-13T00:32:52.507Z,100016.60
2019-03-13T00:33:58.271Z,100016.56
2019-03-13T00:35:06.651Z,100012.64
2019-03-13T00:36:12.585Z,100015.68
2019-03-13T00:37:18.960Z,100005.16
2019-03-13T00:38:25.547Z,100001.20
2019-03-13T00:39:33.908Z,100000.31
2019-03-13T00:40:42.379Z,100000.78
2019-03-13T00:41:50.347Z,99996.39
2019-03-13T00:42:56.093Z,99989.42
2019-03-13T00:44:03.124Z,99984.64
2019-03-13T00:45:13.387Z,99979.45
2019-03-13T00:46:19.505Z,99979.91
2019-03-13T00:47:25.477Z,99976.41
2019-03-13T00:48:31.847Z,99975.97
2019-03-13T00:49:37.776Z,99971.63
2019-03-13T00:50:43.668Z,99974.25
2019-03-13T00:51:49.445Z,99967.70
2019-03-13T00:52:55.119Z,99964.66
2019-03-13T00:54:00.845Z,99962.04
2019-03-13T00:55:07.432Z,99963.31
2019-03-13T00:56:13.155Z,99958.95
2019-03-13T00:57:19.912Z,99954.56
2019-03-13T00:58:25.645Z,99958.95
2019-03-13T00:59:31.384Z,99950.22
2019-03-13T01:00:52.406Z,99954.14
2019-03-13T01:02:10.836Z,99948.91
2019-03-13T01:03:24.688Z,99946.29
2019-03-13T01:04:32.154Z,99947.60
2019-03-13T01:05:39.751Z,99942.36
2019-03-13T01:06:49.901Z,99946.72
2019-03-13T01:07:56.656Z,99944.09
2019-03-13T01:09:02.821Z,99943.67
2019-03-13T01:10:11.246Z,99944.09
2019-03-13T01:11:17.696Z,99938.86
2019-03-13T01:12:24.051Z,99926.66
2019-03-13T01:13:30.059Z,99923.15
2019-03-13T01:14:36.118Z,99929.23
2019-03-13T01:15:42.237Z,99921.84
2019-03-13T01:16:48.005Z,99923.11
2019-03-13T01:17:54.129Z,99924.45
2019-03-13T01:19:00.006Z,99917.45
2019-03-13T01:20:07.361Z,99920.53
2019-03-13T01:21:13.128Z,99922.27
2019-03-13T01:22:18.822Z,99920.92
2019-03-13T01:23:24.457Z,99922.69
2019-03-13T01:24:30.348Z,99913.91
2019-03-13T01:25:35.995Z,99911.72
2019-03-13T01:26:41.715Z,99906.48
2019-03-13T01:27:47.429Z,99907.80
2019-03-13T01:28:53.204Z,99906.94
2019-03-13T01:29:59.049Z,99908.67
2019-03-13T01:31:18.204Z,99905.17
2019-03-13T01:32:24.050Z,99896.41
2019-03-13T01:33:30.539Z,99899.41
2019-03-13T01:34:41.647Z,99898.98
2019-03-13T01:35:52.256Z,99892.47
2019-03-13T01:36:58.423Z,99899.48
2019-03-13T01:38:04.878Z,99897.74
2019-03-13T01:39:10.956Z,99893.39
2019-03-13T01:40:17.126Z,99892.55
2019-03-13T01:41:24.128Z,99889.47
2019-03-13T01:42:29.960Z,99893.39
2019-03-13T01:43:35.938Z,99882.88
2019-03-13T01:44:42.244Z,99883.34
2019-03-13T01:45:48.387Z,99878.99
2019-03-13T01:46:54.488Z,99886.81
2019-03-13T01:48:01.780Z,99875.45
2019-03-13T01:49:07.468Z,99875.45
2019-03-13T01:50:13.942Z,99870.61
2019-03-13T01:51:19.661Z,99866.69
2019-03-13T01:52:25.468Z,99873.23
2019-03-13T01:53:31.102Z,99864.52
2019-03-13T01:54:39.219Z,99867.61
2019-03-13T01:55:44.978Z,99865.45
2019-03-13T01:56:50.947Z,99859.33
2019-03-13T01:57:56.660Z,99855.86
2019-03-13T01:59:02.390Z,99852.35
2019-03-13T02:00:14.655Z,99848.92
2019-03-13T02:01:20.533Z,99841.88
2019-03-13T02:02:26.527Z,99837.53
2019-03-13T02:03:33.068Z,99834.45
2019-03-13T02:04:39.395Z,99834.88
2019-03-13T02:05:46.900Z,99826.60
2019-03-13T02:06:53.257Z,99829.64
2019-03-13T02:07:59.668Z,99824.41
2019-03-13T02:09:06.376Z,99813.48
2019-03-13T02:10:13.643Z,99814.36
2019-03-13T02:11:20.215Z,99806.51
2019-03-13T02:12:26.124Z,99805.20
2019-03-13T02:13:31.963Z,99798.69
2019-03-13T02:14:40.187Z,99790.83
2019-03-13T02:15:46.729Z,99796.07
2019-03-13T02:16:53.005Z,99788.21
2019-03-13T02:18:00.060Z,99778.59
2019-03-13T02:19:06.311Z,99779.48
2019-03-13T02:20:12.266Z,99778.17
2019-03-13T02:21:17.995Z,99770.31
2019-03-13T02:22:24.791Z,99773.39
2019-03-13T02:23:30.720Z,99769.46
2019-03-13T02:24:36.450Z,99772.54
2019-03-13T02:25:42.392Z,99765.14
2019-03-13T02:26:48.051Z,99765.99
2019-03-13T02:27:53.790Z,99761.19
2019-03-13T02:28:59.528Z,99761.64
2019-03-13T02:30:18.228Z,99755.95
2019-03-13T02:31:24.202Z,99749.41
2019-03-13T02:32:30.541Z,99738.89
2019-03-13T02:33:36.455Z,99734.55
2019-03-13T02:34:43.421Z,99736.28
2019-03-13T02:35:49.511Z,99731.47
2019-03-13T02:36:56.282Z,99731.05
2019-03-13T02:38:02.022Z,99728.88
2019-03-13T02:39:07.810Z,99719.75
2019-03-13T02:40:16.056Z,99720.18
2019-03-13T02:41:22.033Z,99716.25
2019-03-13T02:42:28.886Z,99720.20
2019-03-13T02:43:34.938Z,99715.84
2019-03-13T02:44:41.947Z,99715.00
2019-03-13T02:45:48.465Z,99708.02
2019-03-13T02:46:54.375Z,99697.55
2019-03-13T02:48:01.043Z,99687.08
2019-03-13T02:49:07.542Z,99700.59
2019-03-13T02:50:18.093Z,99699.73
2019-03-13T02:51:23.865Z,99694.05
2019-03-13T02:52:30.900Z,99691.89
2019-03-13T02:53:36.638Z,99698.43
2019-03-13T02:54:42.442Z,99698.43
2019-03-13T02:55:48.098Z,99697.13
2019-03-13T02:56:53.762Z,99693.22
2019-03-13T02:57:59.590Z,99686.67
2019-03-13T02:59:05.331Z,99698.03
2019-03-13T03:00:18.628Z,99694.09
2019-03-13T03:01:26.423Z,99697.17
2019-03-13T03:02:33.932Z,99686.27
2019-03-13T03:03:41.933Z,99690.20
2019-03-13T03:04:47.878Z,99682.77
2019-03-13T03:05:53.633Z,99676.66
2019-03-13T03:07:00.361Z,99683.20
2019-03-13T03:08:06.806Z,99680.16
2019-03-13T03:09:13.234Z,99684.53
2019-03-13T03:10:20.310Z,99688.04
2019-03-13T03:11:26.750Z,99671.91
2019-03-13T03:12:32.577Z,99681.48
2019-03-13T03:13:38.672Z,99678.05
2019-03-13T03:15:00.572Z,99674.13
2019-03-13T03:16:07.359Z,99672.83
2019-03-13T03:17:14.162Z,99667.62
2019-03-13T03:18:20.201Z,99670.66
2019-03-13T03:19:26.991Z,99665.86
2019-03-13T03:20:32.908Z,99661.50
2019-03-13T03:21:38.673Z,99661.06
2019-03-13T03:22:44.356Z,99662.38
2019-03-13T03:23:51.161Z,99661.12
2019-03-13T03:24:56.882Z,99661.52
2019-03-13T03:26:02.650Z,99661.95
2019-03-13T03:27:08.390Z,99649.28
2019-03-13T03:28:14.094Z,99652.38
2019-03-13T03:29:19.872Z,99651.92
2019-03-13T03:30:25.831Z,99644.95
2019-03-13T03:31:31.817Z,99641.91
2019-03-13T03:32:38.071Z,99643.66
2019-03-13T03:33:45.728Z,99646.70
2019-03-13T03:34:52.358Z,99648.44
2019-03-13T03:35:58.552Z,99641.04
2019-03-13T03:37:04.695Z,99639.76
2019-03-13T03:38:10.698Z,99641.94
2019-03-13T03:39:16.835Z,99638.02
2019-03-13T03:40:23.869Z,99645.02
2019-03-13T03:41:30.002Z,99642.37
2019-03-13T03:42:36.325Z,99646.30
2019-03-13T03:43:43.082Z,99641.92
2019-03-13T03:44:49.507Z,99638.42
2019-03-13T03:45:55.412Z,99640.16
2019-03-13T03:47:02.144Z,99636.25
2019-03-13T03:48:09.948Z,99626.66
2019-03-13T03:49:15.996Z,99631.05
2019-03-13T03:50:21.754Z,99620.56
2019-03-13T03:51:27.483Z,99626.20
2019-03-13T03:52:33.232Z,99621.45
2019-03-13T03:53:38.981Z,99621.88
2019-03-13T03:54:44.729Z,99615.75
2019-03-13T03:55:50.433Z,99616.62
2019-03-13T03:56:56.184Z,99618.37
2019-03-13T03:58:01.957Z,99623.17
2019-03-13T03:59:08.813Z,99613.58
2019-03-13T04:00:19.556Z,99623.23
2019-03-13T04:01:25.520Z,99621.48
2019-03-13T04:02:32.507Z,99623.67
2019-03-13T04:03:39.004Z,99621.48
2019-03-13T04:04:45.290Z,99620.20
2019-03-13T04:05:51.955Z,99613.22
2019-03-13T04:06:58.392Z,99617.12
2019-03-13T04:08:04.503Z,99614.94
2019-03-13T04:09:11.843Z,99613.20
2019-03-13T04:10:19.044Z,99613.59
2019-03-13T04:11:24.865Z,99603.13
2019-03-13T04:12:30.878Z,99604.03
2019-03-13T04:13:37.693Z,99618.01
2019-03-13T04:14:44.232Z,99612.31
2019-03-13T04:15:51.193Z,99604.02
2019-03-13T04:16:57.134Z,99600.08
2019-03-13T04:18:02.959Z,99607.08
2019-03-13T04:19:09.776Z,99605.31
2019-03-13T04:20:19.104Z,99609.72
2019-03-13T04:21:25.854Z,99604.48
2019-03-13T04:22:31.695Z,99595.72
2019-03-13T04:23:37.438Z,99606.22
2019-03-13T04:24:44.188Z,99596.63
2019-03-13T04:25:49.925Z,99589.62
2019-03-13T04:26:55.677Z,99598.77
2019-03-13T04:28:01.425Z,99605.77
2019-03-13T04:29:08.487Z,99601.38
2019-03-13T04:30:14.473Z,99607.97
2019-03-13T04:31:20.785Z,99591.40
2019-03-13T04:32:26.906Z,99588.33
2019-03-13T04:33:34.715Z,99594.47
2019-03-13T04:34:41.722Z,99595.34
2019-03-13T04:35:48.175Z,99590.13
2019-03-13T04:36:54.490Z,99591.91
2019-03-13T04:38:00.765Z,99584.05
2019-03-13T04:39:07.462Z,99584.53
2019-03-13T04:40:15.587Z,99591.08
2019-03-13T04:41:22.199Z,99595.03
2019-03-13T04:42:28.032Z,99588.93
2019-03-13T04:43:34.283Z,99589.36
2019-03-13T04:44:40.485Z,99584.98
2019-03-13T04:45:46.870Z,99591.09
2019-03-13T04:46:53.853Z,99585.00
2019-03-13T04:48:00.531Z,99575.84
2019-03-13T04:49:06.801Z,99582.41
2019-03-13T04:50:16.404Z,99577.16
2019-03-13T04:51:22.427Z,99576.73
2019-03-13T04:52:28.077Z,99574.59
2019-03-13T04:53:33.774Z,99575.85
2019-03-13T04:54:39.497Z,99578.95
2019-03-13T04:55:45.385Z,99574.59
2019-03-13T04:56:51.304Z,99579.40
2019-03-13T04:57:57.132Z,99569.80
2019-03-13T04:59:04.722Z,99576.81
2019-03-13T05:00:17.199Z,99567.20
2019-03-13T05:01:26.096Z,99577.27
2019-03-13T05:02:30.372Z,99569.84
2019-03-13T05:03:55.463Z,99570.67
2019-03-13T05:05:01.246Z,99570.70
2019-03-13T05:06:12.285Z,99574.20
2019-03-13T05:07:18.785Z,99570.70
2019-03-13T05:08:44.220Z,99570.27
2019-03-13T05:09:41.077Z,99568.09
2019-03-13T05:10:47.704Z,99558.48
2019-03-13T05:11:54.503Z,99557.60
2019-03-13T05:13:01.049Z,99561.97
2019-03-13T05:14:07.223Z,99564.59
2019-03-13T05:15:13.838Z,99567.66
2019-03-13T05:16:20.394Z,99566.78
2019-03-13T05:17:26.722Z,99571.14
2019-03-13T05:18:33.385Z,99569.42
2019-03-13T05:19:40.005Z,99565.94
2019-03-13T05:20:46.445Z,99566.35
2019-03-13T05:21:52.263Z,99571.16
2019-03-13T05:22:58.075Z,99560.24
2019-03-13T05:24:05.003Z,99572.91
2019-03-13T05:25:10.715Z,99563.31
2019-03-13T05:26:18.195Z,99557.63
2019-03-13T05:27:24.209Z,99559.37
2019-03-13T05:28:30.085Z,99568.55
2019-03-13T05:29:36.976Z,99561.11
2019-03-13T05:30:43.027Z,99567.26
2019-03-13T05:31:48.952Z,99570.31
2019-03-13T05:32:55.858Z,99569.00
2019-03-13T05:34:01.812Z,99568.55
2019-03-13T05:35:08.231Z,99570.31
2019-03-13T05:36:17.016Z,99575.13
2019-03-13T05:37:23.209Z,99579.08
2019-03-13T05:38:30.989Z,99580.80
2019-03-13T05:39:39.469Z,99576.89
2019-03-13T05:40:45.649Z,99581.70
2019-03-13T05:41:52.530Z,99582.59
2019-03-13T05:42:59.259Z,99579.95
2019-03-13T05:44:05.696Z,99579.52
2019-03-13T05:45:12.169Z,99583.45
2019-03-13T05:46:18.759Z,99586.08
2019-03-13T05:47:42.489Z,99579.52
2019-03-13T05:48:48.899Z,99585.67
2019-03-13T05:49:54.827Z,99571.23
2019-03-13T05:51:01.740Z,99589.60
2019-03-13T05:52:07.829Z,99579.13
2019-03-13T05:53:13.768Z,99584.80
2019-03-13T05:54:19.826Z,99583.91
2019-03-13T05:55:25.929Z,99588.75
2019-03-13T05:56:31.719Z,99592.69
2019-03-13T05:57:37.942Z,99581.77
2019-03-13T05:58:44.319Z,99574.77
2019-03-13T05:59:50.379Z,99573.90
2019-03-13T06:00:56.989Z,99577.39
2019-03-13T06:02:03.869Z,99583.53
2019-03-13T06:03:09.649Z,99579.63
2019-03-13T06:04:15.589Z,99588.34
2019-03-13T06:05:21.600Z,99582.66
2019-03-13T06:06:27.850Z,99582.23
2019-03-13T06:07:35.036Z,99580.51
2019-03-13T06:08:40.799Z,99585.74
2019-03-13T06:09:50.758Z,99587.94
2019-03-13T06:10:57.581Z,99587.52
2019-03-13T06:12:03.540Z,99581.84
2019-03-13T06:13:09.776Z,99586.21
2019-03-13T06:14:16.346Z,99594.95
2019-03-13T06:15:22.509Z,99598.02
2019-03-13T06:16:30.427Z,99596.73
2019-03-13T06:17:37.867Z,99591.48
2019-03-13T06:18:43.841Z,99592.78
2019-03-13T06:19:50.553Z,99595.45
2019-03-13T06:20:59.780Z,99585.37
2019-03-13T06:22:05.668Z,99588.44
2019-03-13T06:23:11.749Z,99591.48
2019-03-13T06:24:17.870Z,99597.16
2019-03-13T06:25:23.718Z,99600.22
2019-03-13T06:26:29.470Z,99597.61
2019-03-13T06:27:35.900Z,99602.39
2019-03-13T06:28:43.699Z,99601.95
2019-03-13T06:29:49.553Z,99605.01
2019-03-13T06:30:56.641Z,99610.25
2019-03-13T06:32:02.671Z,99610.25
2019-03-13T06:33:08.920Z,99608.48
2019-03-13T06:34:14.722Z,99611.58
2019-03-13T06:35:23.590Z,99607.18
2019-03-13T06:36:29.063Z,99611.14
2019-03-13T06:37:35.096Z,99600.22
2019-03-13T06:38:43.300Z,99608.96
2019-03-13T06:39:50.799Z,99608.48
2019-03-13T06:40:59.127Z,99612.89
2019-03-13T06:42:06.991Z,99605.02
2019-03-13T06:43:12.948Z,99604.15
2019-03-13T06:44:19.867Z,99608.96
2019-03-13T06:45:26.361Z,99618.14
2019-03-13T06:46:33.348Z,99608.48
2019-03-13T06:47:39.840Z,99618.52
2019-03-13T06:48:45.944Z,99615.89
2019-03-13T06:49:52.038Z,99616.34
2019-03-13T06:50:58.661Z,99618.50
2019-03-13T06:52:04.700Z,99616.73
2019-03-13T06:53:10.678Z,99614.51
2019-03-13T06:54:16.741Z,99619.73
2019-03-13T06:55:23.022Z,99623.23
2019-03-13T06:56:29.891Z,99628.45
2019-03-13T06:57:35.991Z,99634.55
2019-03-13T06:58:46.438Z,99626.65
2019-03-13T07:00:03.463Z,99629.71
2019-03-13T07:01:11.190Z,99636.23
2019-03-13T07:02:23.672Z,99637.59
2019-03-13T07:03:49.326Z,99633.61
2019-03-13T07:05:00.390Z,99630.13
2019-03-13T07:06:24.817Z,99639.31
2019-03-13T07:07:48.771Z,99641.95
2019-03-13T07:08:56.968Z,99635.41
2019-03-13T07:10:08.022Z,99635.84
2019-03-13T07:11:26.061Z,99633.23
2019-03-13T07:12:50.300Z,99643.28
2019-03-13T07:13:58.222Z,99641.53
2019-03-13T07:15:13.620Z,99644.12
2019-03-13T07:16:32.191Z,99642.37
2019-03-13T07:17:39.898Z,99645.87
2019-03-13T07:18:57.557Z,99636.72
2019-03-13T07:20:14.966Z,99639.77
2019-03-13T07:21:23.725Z,99644.16
2019-03-13T07:22:37.451Z,99646.31
2019-03-13T07:23:46.902Z,99646.77
2019-03-13T07:25:09.634Z,99649.84
2019-03-13T07:26:24.521Z,99657.26
2019-03-13T07:27:45.599Z,99663.38
2019-03-13T07:29:11.985Z,99662.09
2019-03-13T07:30:16.569Z,99664.72
2019-03-13T07:31:26.688Z,99665.17
2019-03-13T07:32:34.011Z,99669.97
2019-03-13T07:33:44.462Z,99671.70
2019-03-13T07:34:56.823Z,99668.20
2019-03-13T07:36:06.442Z,99669.53
2019-03-13T07:37:17.022Z,99664.28
2019-03-13T07:38:31.673Z,99661.66
2019-03-13T07:39:44.982Z,99674.31
2019-03-13T07:40:55.770Z,99679.08
2019-03-13T07:42:14.543Z,99675.56
2019-03-13T07:43:31.200Z,99677.31
2019-03-13T07:46:09.042Z,99669.02
2019-03-13T07:47:32.810Z,99682.55
2019-03-13T07:48:49.360Z,99681.24
2019-03-13T07:50:10.496Z,99669.88
2019-03-13T07:51:22.212Z,99672.06
2019-03-13T07:52:33.102Z,99674.69
2019-03-13T07:53:56.891Z,99672.52
2019-03-13T07:55:05.798Z,99673.39
2019-03-13T07:56:13.418Z,99676.50
2019-03-13T07:57:24.857Z,99675.59
2019-03-13T07:58:39.680Z,99675.64
2019-03-13T07:59:53.194Z,99683.05
2019-03-13T08:01:03.349Z,99685.70
2019-03-13T08:02:12.444Z,99688.37
2019-03-13T08:03:27.436Z,99687.97
2019-03-13T08:04:51.844Z,99694.55
2019-03-13T08:06:06.679Z,99692.81
2019-03-13T08:07:26.219Z,99700.72
2019-03-13T08:08:34.839Z,99689.79
2019-03-13T08:09:40.772Z,99692.45
2019-03-13T08:10:51.380Z,99689.84
2019-03-13T08:12:00.056Z,99697.28
2019-03-13T08:13:27.358Z,99700.78
2019-03-13T08:14:43.645Z,99699.09
2019-03-13T08:15:51.041Z,99700.84
2019-03-13T08:17:18.402Z,99706.53
2019-03-13T08:18:41.161Z,99707.89
2019-03-13T08:19:50.104Z,99703.56
2019-03-13T08:21:10.432Z,99711.46
2019-03-13T08:22:33.900Z,99709.29
2019-03-13T08:23:44.440Z,99712.77
2019-03-13T08:25:08.294Z,99718.86
2019-03-13T08:26:22.353Z,99709.27
2019-03-13T08:27:36.992Z,99715.81
2019-03-13T08:28:47.350Z,99716.25
2019-03-13T08:29:54.520Z,99719.34
2019-03-13T08:31:03.546Z,99711.91
2019-03-13T08:32:28.963Z,99720.25
2019-03-13T08:33:54.443Z,99714.13
2019-03-13T08:35:10.843Z,99725.08
2019-03-13T08:36:35.013Z,99724.20
2019-03-13T08:37:42.060Z,99724.63
2019-03-13T08:38:52.073Z,99724.63
2019-03-13T08:40:16.299Z,99727.27
2019-03-13T08:41:36.431Z,99729.00
2019-03-13T08:42:44.103Z,99720.28
2019-03-13T08:43:57.771Z,99726.87
2019-03-13T08:45:06.743Z,99724.25
2019-03-13T08:46:20.381Z,99725.14
2019-03-13T08:47:44.617Z,99738.67
2019-03-13T08:49:06.324Z,99737.81
2019-03-13T08:50:30.133Z,99737.38
2019-03-13T08:51:47.663Z,99740.05
2019-03-13T08:53:11.973Z,99742.73
2019-03-13T08:54:37.600Z,99738.84
2019-03-13T08:55:54.048Z,99734.97
2019-03-13T08:57:14.021Z,99736.31
2019-03-13T08:58:33.403Z,99733.73
2019-03-13T08:59:40.801Z,99726.75
2019-03-13T09:00:47.316Z,99731.63
2019-03-13T09:01:58.844Z,99730.33
2019-03-13T09:03:09.194Z,99725.09
2019-03-13T09:04:25.854Z,99725.54
2019-03-13T09:05:49.631Z,99730.39
2019-03-13T09:07:00.113Z,99743.96
2019-03-13T09:08:06.524Z,99734.30
2019-03-13T09:09:12.821Z,99740.45
2019-03-13T09:10:36.240Z,99737.38
2019-03-13T09:13:46.245Z,99749.64
2019-03-13T09:14:54.190Z,99739.11
2019-03-13T09:16:07.838Z,99744.81
2019-03-13T09:17:19.228Z,99746.09
2019-03-13T09:18:47.566Z,99740.84
2019-03-13T09:19:53.963Z,99744.34
2019-03-13T09:21:08.609Z,99753.60
2019-03-13T09:22:17.483Z,99748.34
2019-03-13T09:23:41.318Z,99750.50
2019-03-13T09:24:49.477Z,99753.59
2019-03-13T09:25:56.450Z,99757.54
2019-03-13T09:27:08.270Z,99762.78
2019-03-13T09:28:32.329Z,99761.05
2019-03-13T09:29:38.277Z,99764.56
2019-03-13T09:30:53.888Z,99762.78
2019-03-13T09:32:17.024Z,99754.44
2019-03-13T09:33:31.540Z,99762.34
2019-03-13T09:34:45.556Z,99774.18
2019-03-13T09:35:54.530Z,99762.31
2019-03-13T09:37:00.551Z,99770.19
2019-03-13T09:38:08.220Z,99765.77
2019-03-13T09:39:18.939Z,99760.92
2019-03-13T09:40:31.143Z,99765.30
2019-03-13T09:41:39.426Z,99767.07
2019-03-13T09:42:47.498Z,99763.98
2019-03-13T09:44:14.159Z,99767.54
2019-03-13T09:45:27.895Z,99772.81
2019-03-13T09:46:41.822Z,99775.05
2019-03-13T09:48:06.872Z,99774.61
2019-03-13T09:49:24.277Z,99779.47
2019-03-13T09:50:37.598Z,99778.15
2019-03-13T09:51:45.389Z,99779.47
2019-03-13T09:52:55.503Z,99779.05
2019-03-13T09:54:09.019Z,99774.66
2019-03-13T09:55:33.386Z,99776.84
2019-03-13T09:56:47.866Z,99776.84
2019-03-13T09:57:58.936Z,99779.89
2019-03-13T09:59:23.845Z,99785.59
2019-03-13T10:00:48.090Z,99789.53
2019-03-13T10:02:20.995Z,99789.11
2019-03-13T10:04:14.655Z,99785.56
2019-03-13T10:05:43.435Z,99788.23
2019-03-13T10:09:08.353Z,99797.87
2019-03-13T10:10:36.898Z,99798.71
2019-03-13T10:12:05.172Z,99794.33
2019-03-13T10:13:22.633Z,99804.88
2019-03-13T10:14:40.634Z,99803.98
2019-03-13T10:15:52.424Z,99808.38
2019-03-13T10:17:17.234Z,99805.27
2019-03-13T10:18:35.137Z,99806.12
2019-03-13T10:19:53.870Z,99799.08
2019-03-13T10:22:54.317Z,99804.73
2019-03-13T10:24:30.619Z,99802.10
2019-03-13T10:26:09.575Z,99806.92
2019-03-13T10:27:28.851Z,99804.27
2019-03-13T10:28:57.090Z,99809.09
2019-03-13T10:30:30.059Z,99809.87
2019-03-13T10:31:46.997Z,99800.52
2019-03-13T10:33:07.945Z,99806.56
2019-03-13T10:34:28.155Z,99798.61
2019-03-13T10:37:56.987Z,99809.48
2019-03-13T10:39:26.117Z,99803.73
2019-03-13T10:40:48.057Z,99804.16
2019-03-13T10:42:27.548Z,99807.28
2019-03-13T10:43:54.752Z,99800.34
2019-03-13T10:45:24.580Z,99800.49
2019-03-13T10:47:00.877Z,99806.25
2019-03-13T10:48:24.039Z,99809.42
2019-03-13T10:49:47.810Z,99823.11
2019-03-13T10:51:17.951Z,99811.67
2019-03-13T10:52:36.451Z,99819.57
2019-03-13T10:54:00.074Z,99823.06
2019-03-13T10:55:24.039Z,99816.95
2019-03-13T10:56:39.212Z,99810.82
2019-03-13T10:57:53.504Z,99811.27
2019-03-13T10:59:04.378Z,99800.30
2019-03-13T11:00:29.186Z,99798.51
2019-03-13T11:01:56.191Z,99802.00
2019-03-13T11:03:11.871Z,99806.79
2019-03-13T11:04:37.280Z,99807.65
2019-03-13T11:05:52.351Z,99802.33
2019-03-13T11:07:08.607Z,99797.02
2019-03-13T11:10:21.095Z,99797.38
2019-03-13T11:11:46.791Z,99797.84
2019-03-13T11:12:58.790Z,99802.25
2019-03-13T11:14:16.203Z,99811.91
2019-03-13T11:15:25.151Z,99803.95
2019-03-13T11:16:34.862Z,99799.58
2019-03-13T11:18:00.981Z,99800.48
2019-03-13T11:19:16.586Z,99811.53
2019-03-13T11:20:40.858Z,99813.78
2019-03-13T11:21:56.525Z,99824.38
2019-03-13T11:23:10.302Z,99815.65
2019-03-13T11:24:22.720Z,99812.61
2019-03-13T11:25:36.857Z,99818.30
2019-03-13T11:26:49.259Z,99817.86
2019-03-13T11:28:01.352Z,99820.95
2019-03-13T11:29:19.900Z,99802.91
2019-03-13T11:30:28.835Z,99818.73
2019-03-13T11:31:52.897Z,99825.77
2019-03-13T11:33:16.462Z,99820.03
2019-03-13T11:34:38.550Z,99828.36
2019-03-13T11:38:11.109Z,99820.40
2019-03-13T11:38:18.144Z,99827.84
2019-03-13T11:39:35.404Z,99814.59
2019-03-13T11:41:05.116Z,99823.34
2019-03-13T11:42:57.093Z,99820.67
2019-03-13T11:46:05.691Z,99825.08
2019-03-13T11:47:24.071Z,99827.27
2019-03-13T11:48:51.531Z,99825.92
2019-03-13T11:50:20.532Z,99826.77
2019-03-13T11:51:31.976Z,99828.97
2019-03-13T11:52:50.784Z,99828.09
2019-03-13T11:54:19.166Z,99829.41
2019-03-13T11:55:49.610Z,99825.89
2019-03-13T11:57:02.432Z,99824.98
2019-03-13T11:58:23.661Z,99820.98
2019-03-13T11:59:39.415Z,99833.25
2019-03-13T12:00:51.192Z,99828.81
2019-03-13T12:02:17.358Z,99831.90
2019-03-13T12:03:47.899Z,99822.14
2019-03-13T12:05:01.722Z,99822.98
2019-03-13T12:06:16.485Z,99822.08
2019-03-13T12:07:52.883Z,99827.32
2019-03-13T12:09:12.964Z,99826.00
2019-03-13T12:10:48.718Z,99817.27
2019-03-13T12:12:12.557Z,99827.73
2019-03-13T12:13:48.076Z,99823.32
2019-03-13T12:15:12.991Z,99822.48
2019-03-13T12:16:44.321Z,99806.59
2019-03-13T12:20:00.642Z,99817.17
2019-03-13T12:21:18.748Z,99804.25
2019-03-13T12:22:43.674Z,99804.69
2019-03-13T12:24:02.923Z,99812.57
2019-03-13T12:25:17.930Z,99816.48
2019-03-13T12:26:41.525Z,99813.31
2019-03-13T12:28:22.828Z,99811.88
2019-03-13T12:29:40.719Z,99815.64
2019-03-13T12:30:57.931Z,99801.39
2019-03-13T12:32:23.475Z,99814.18
2019-03-13T12:35:19.053Z,99808.23
2019-03-13T12:36:36.847Z,99810.16
2019-03-13T12:37:49.581Z,99809.88
2019-03-13T12:39:22.832Z,99812.63
2019-03-13T12:40:43.715Z,99808.70
2019-03-13T12:42:15.800Z,99814.48
2019-03-13T12:43:53.200Z,99808.26
2019-03-13T12:45:18.428Z,99820.16
2019-03-13T12:46:36.864Z,99818.48
2019-03-13T12:48:01.061Z,99812.28
2019-03-13T12:49:34.550Z,99819.77
2019-03-13T12:50:49.194Z,99816.34
2019-03-13T12:52:25.587Z,99816.34
2019-03-13T12:53:42.214Z,99808.41
2019-03-13T12:55:06.443Z,99807.95
2019-03-13T12:56:19.277Z,99814.92
2019-03-13T12:57:38.794Z,99816.15
2019-03-13T12:59:02.260Z,99800.33
2019-03-13T13:00:17.992Z,99798.52
2019-03-13T13:01:30.161Z,99795.04
2019-03-13T13:02:56.835Z,99806.00
2019-03-13T13:04:12.965Z,99809.45
2019-03-13T13:05:24.128Z,99813.80
2019-03-13T13:06:32.350Z,99811.16
2019-03-13T13:07:43.686Z,99802.83
2019-03-13T13:08:51.249Z,99805.95
2019-03-13T13:09:57.682Z,99815.66
2019-03-13T13:11:10.143Z,99811.73
2019-03-13T13:12:22.618Z,99810.91
2019-03-13T13:13:45.658Z,99815.75
2019-03-13T13:14:53.312Z,99803.77
2019-03-13T13:16:17.198Z,99810.31
2019-03-13T13:17:30.582Z,99810.31
2019-03-13T13:18:36.064Z,99815.02
2019-03-13T13:19:42.312Z,99809.29
2019-03-13T13:20:48.725Z,99806.69
2019-03-13T13:21:55.100Z,99798.31
2019-03-13T13:23:01.827Z,99808.45
2019-03-13T13:24:09.781Z,99799.59
2019-03-13T13:25:15.662Z,99797.38
2019-03-13T13:26:21.449Z,99803.55
2019-03-13T13:27:27.307Z,99802.18
2019-03-13T13:28:33.463Z,99797.77
2019-03-13T13:29:39.175Z,99799.62
2019-03-13T13:30:44.965Z,99804.09
2019-03-13T13:31:50.693Z,99804.05
2019-03-13T13:32:56.484Z,99799.14
2019-03-13T13:34:02.269Z,99796.05
2019-03-13T13:35:10.604Z,99793.85
2019-03-13T13:36:16.361Z,99795.13
2019-03-13T13:37:24.832Z,99792.48
2019-03-13T13:38:30.691Z,99796.92
2019-03-13T13:39:36.827Z,99800.86
2019-03-13T13:40:42.753Z,99798.59
2019-03-13T13:41:48.630Z,99802.02
2019-03-13T13:42:54.420Z,99788.33
2019-03-13T13:44:01.161Z,99795.78
2019-03-13T13:45:33.115Z,99796.27
2019-03-13T13:46:38.833Z,99796.27
2019-03-13T13:47:44.533Z,99800.24
2019-03-13T13:48:51.094Z,99795.39
2019-03-13T13:49:59.856Z,99793.69
2019-03-13T13:51:04.541Z,99798.53
2019-03-13T13:52:10.501Z,99794.95
2019-03-13T13:53:17.301Z,99797.59
2019-03-13T13:54:23.108Z,99797.59
2019-03-13T13:55:29.004Z,99791.81
2019-03-13T13:56:35.259Z,99786.41
2019-03-13T13:57:41.061Z,99782.36
2019-03-13T13:58:46.905Z,99796.40
2019-03-13T13:59:52.679Z,99786.58
2019-03-13T14:01:05.644Z,99786.58
2019-03-13T14:02:11.780Z,99789.23
2019-03-13T14:03:25.970Z,99794.56
2019-03-13T14:04:31.927Z,99791.04
2019-03-13T14:05:40.731Z,99767.86
2019-03-13T14:06:45.239Z,99783.75
2019-03-13T14:07:51.416Z,99788.21
2019-03-13T14:08:57.122Z,99791.74
2019-03-13T14:10:03.718Z,99788.23
2019-03-13T14:11:10.857Z,99797.05
2019-03-13T14:12:19.948Z,99774.66
2019-03-13T14:13:24.952Z,99774.66
2019-03-13T14:14:30.860Z,99789.05